createdAt,value
2023-05-21T00:01:18.281Z,101730.91
2023-05-21T00:03:46.282Z,101728.13
2023-05-21T00:06:16.127Z,101734.19
2023-05-21T00:08:44.042Z,101728.00
2023-05-21T00:11:10.965Z,101727.47
2023-05-21T00:13:38.606Z,101721.19
2023-05-21T00:16:05.729Z,101718.66
2023-05-21T00:18:34.283Z,101717.34
2023-05-21T00:21:01.792Z,101706.16
2023-05-21T00:23:29.017Z,101710.00
2023-05-21T00:25:56.317Z,101711.59
2023-05-21T00:28:22.985Z,101709.56
2023-05-21T00:30:49.765Z,101705.50
2023-05-21T00:33:16.521Z,101707.75
2023-05-21T00:35:43.277Z,101706.59
2023-05-21T00:38:10.030Z,101710.72
2023-05-21T00:40:36.800Z,101706.91
2023-05-21T00:43:03.711Z,101702.97
2023-05-21T00:45:30.497Z,101704.97
2023-05-21T00:47:57.794Z,101707.19
2023-05-21T00:50:24.637Z,101703.16
2023-05-21T00:52:51.795Z,101702.72
2023-05-21T00:55:18.441Z,101695.38
2023-05-21T00:57:46.085Z,101697.19
2023-05-21T01:00:14.793Z,101697.47
2023-05-21T01:02:42.405Z,101699.63
2023-05-21T01:05:10.698Z,101678.88
2023-05-21T01:07:39.895Z,101685.59
2023-05-21T01:10:08.535Z,101685.59
2023-05-21T01:12:40.850Z,101692.81
2023-05-21T01:15:10.820Z,101681.53
2023-05-21T01:17:39.134Z,101685.13
2023-05-21T01:20:10.443Z,101687.38
2023-05-21T01:22:42.704Z,101688.22
2023-05-21T01:25:10.762Z,101684.91
2023-05-21T01:27:37.458Z,101691.31
2023-05-21T01:30:05.326Z,101679.16
2023-05-21T01:32:37.986Z,101683.63
2023-05-21T01:35:07.068Z,101682.06
2023-05-21T01:37:59.386Z,101683.84
2023-05-21T01:40:28.425Z,101679.16
2023-05-21T01:42:55.905Z,101672.56
2023-05-21T01:45:24.220Z,101672.97
2023-05-21T01:47:53.929Z,101674.59
2023-05-21T01:50:24.550Z,101667.25
2023-05-21T01:53:01.147Z,101669.22
2023-05-21T01:55:30.766Z,101677.84
2023-05-21T01:58:00.017Z,101669.16
2023-05-21T02:00:29.440Z,101671.69
2023-05-21T02:02:56.444Z,101662.28
2023-05-21T02:05:23.350Z,101661.22
2023-05-21T02:07:52.002Z,101667.19
2023-05-21T02:10:19.267Z,101661.16
2023-05-21T02:12:46.259Z,101663.78
2023-05-21T02:15:18.142Z,101664.00
2023-05-21T02:17:46.555Z,101671.16
2023-05-21T02:20:13.830Z,101664.53
2023-05-21T02:22:41.792Z,101657.09
2023-05-21T02:25:09.640Z,101652.94
2023-05-21T02:27:37.642Z,101652.31
2023-05-21T02:30:06.870Z,101653.69
2023-05-21T02:32:35.110Z,101652.50
2023-05-21T02:35:03.967Z,101647.94
2023-05-21T02:37:34.511Z,101638.25
2023-05-21T02:40:04.187Z,101643.00
2023-05-21T02:42:31.007Z,101635.91
2023-05-21T02:45:02.290Z,101633.03
2023-05-21T02:47:29.441Z,101630.34
2023-05-21T02:50:00.327Z,101636.09
2023-05-21T02:52:27.535Z,101632.13
2023-05-21T02:54:54.352Z,101628.75
2023-05-21T02:57:21.214Z,101620.13
2023-05-21T02:59:48.187Z,101628.63
2023-05-21T03:02:14.947Z,101623.13
2023-05-21T03:04:46.097Z,101619.91
2023-05-21T03:07:14.610Z,101618.50
2023-05-21T03:09:42.156Z,101615.00
2023-05-21T03:12:11.044Z,101626.72
2023-05-21T03:14:38.070Z,101624.31
2023-05-21T03:17:06.181Z,101622.06
2023-05-21T03:19:35.805Z,101635.66
2023-05-21T03:22:04.501Z,101630.44
2023-05-21T03:24:34.373Z,101631.75
2023-05-21T03:27:02.320Z,101624.13
2023-05-21T03:29:29.200Z,101626.22
2023-05-21T03:31:56.859Z,101622.81
2023-05-21T03:34:24.076Z,101626.50
2023-05-21T03:36:51.157Z,101627.78
2023-05-21T03:39:18.926Z,101621.56
2023-05-21T03:41:45.692Z,101624.59
2023-05-21T03:44:20.469Z,101619.91
2023-05-21T03:46:53.157Z,101612.47
2023-05-21T03:49:26.799Z,101612.56
2023-05-21T03:51:56.170Z,101613.63
2023-05-21T03:54:23.864Z,101610.75
2023-05-21T03:56:53.708Z,101604.97
2023-05-21T03:59:20.764Z,101602.31
2023-05-21T04:01:47.932Z,101602.53
2023-05-21T04:04:16.958Z,101603.16
2023-05-21T04:06:46.200Z,101604.50
2023-05-21T04:09:13.101Z,101607.13
2023-05-21T04:11:39.890Z,101601.59
2023-05-21T04:14:06.638Z,101602.16
2023-05-21T04:16:35.487Z,101601.03
2023-05-21T04:19:03.684Z,101605.81
2023-05-21T04:21:32.213Z,101593.59
2023-05-21T04:24:00.740Z,101591.53
2023-05-21T04:26:42.381Z,101590.31
2023-05-21T04:29:10.064Z,101600.97
2023-05-21T04:31:36.903Z,101593.28
2023-05-21T04:34:05.006Z,101590.91
2023-05-21T04:36:31.968Z,101589.56
2023-05-21T04:38:58.676Z,101593.88
2023-05-21T04:41:25.355Z,101590.69
2023-05-21T04:43:55.389Z,101585.69
2023-05-21T04:46:26.821Z,101589.16
2023-05-21T04:48:56.975Z,101588.41
2023-05-21T04:51:27.062Z,101585.41
2023-05-21T04:53:58.116Z,101590.25
2023-05-21T04:56:27.845Z,101579.78
2023-05-21T04:58:54.570Z,101582.16
2023-05-21T05:01:27.266Z,101583.06
2023-05-21T05:03:54.242Z,101582.78
2023-05-21T05:06:21.595Z,101589.19
2023-05-21T05:08:51.089Z,101589.59
2023-05-21T05:11:17.816Z,101589.16
2023-05-21T05:13:44.587Z,101587.38
2023-05-21T05:16:11.357Z,101589.47
2023-05-21T05:18:41.547Z,101592.13
2023-05-21T05:21:08.418Z,101594.97
2023-05-21T05:23:35.185Z,101581.75
2023-05-21T05:26:01.881Z,101586.38
2023-05-21T05:28:28.757Z,101585.81
2023-05-21T05:30:55.589Z,101587.56
2023-05-21T05:33:24.827Z,101584.38
2023-05-21T05:35:55.061Z,101585.22
2023-05-21T05:38:22.198Z,101587.31
2023-05-21T05:40:48.931Z,101588.53
2023-05-21T05:43:16.652Z,101589.72
2023-05-21T05:45:43.835Z,101589.25
2023-05-21T05:48:13.957Z,101587.72
2023-05-21T05:50:44.370Z,101585.22
2023-05-21T05:53:13.378Z,101582.72
2023-05-21T05:55:40.876Z,101587.63
2023-05-21T05:58:07.801Z,101593.63
2023-05-21T06:00:46.935Z,101581.03
2023-05-21T06:03:14.039Z,101581.03
2023-05-21T06:05:42.194Z,101581.03
2023-05-21T06:08:08.937Z,101572.09
2023-05-21T06:10:35.593Z,101574.72
2023-05-21T06:13:03.690Z,101581.06
2023-05-21T06:15:33.542Z,101573.47
2023-05-21T06:18:00.532Z,101570.22
2023-05-21T06:20:30.374Z,101571.22
2023-05-21T06:22:57.330Z,101568.97
2023-05-21T06:25:25.728Z,101566.84
2023-05-21T06:27:52.442Z,101575.31
2023-05-21T06:30:27.232Z,101577.88
2023-05-21T06:32:56.289Z,101570.44
2023-05-21T06:35:23.822Z,101564.19
2023-05-21T06:37:50.491Z,101563.91
2023-05-21T06:40:17.191Z,101566.31
2023-05-21T06:42:45.835Z,101572.81
2023-05-21T06:45:21.779Z,101563.06
2023-05-21T06:47:51.756Z,101568.16
2023-05-21T06:50:18.816Z,101568.59
2023-05-21T06:52:45.630Z,101569.31
2023-05-21T06:55:13.008Z,101567.03
2023-05-21T06:57:58.877Z,101571.00
2023-05-21T07:00:25.837Z,101572.97
2023-05-21T07:02:53.571Z,101564.19
2023-05-21T07:05:20.558Z,101570.50
2023-05-21T07:07:50.032Z,101570.38
2023-05-21T07:10:16.789Z,101570.13
2023-05-21T07:12:43.570Z,101560.38
2023-05-21T07:15:10.952Z,101558.28
2023-05-21T07:17:38.931Z,101559.63
2023-05-21T07:20:08.780Z,101558.69
2023-05-21T07:22:42.970Z,101562.78
2023-05-21T07:25:13.428Z,101553.47
2023-05-21T07:27:40.207Z,101561.38
2023-05-21T07:30:07.948Z,101557.69
2023-05-21T07:32:35.256Z,101560.53
2023-05-21T07:35:02.137Z,101568.75
2023-05-21T07:37:30.740Z,101564.78
2023-05-21T07:40:01.019Z,101558.56
2023-05-21T07:42:28.279Z,101556.31
2023-05-21T07:44:56.800Z,101565.88
2023-05-21T07:47:25.696Z,101553.59
2023-05-21T07:49:52.475Z,101552.13
2023-05-21T07:52:19.343Z,101542.34
2023-05-21T07:54:46.106Z,101549.34
2023-05-21T07:57:13.006Z,101538.94
2023-05-21T07:59:48.773Z,101541.03
2023-05-21T08:02:15.758Z,101539.38
2023-05-21T08:04:43.225Z,101547.16
2023-05-21T08:07:10.735Z,101530.53
2023-05-21T08:09:37.538Z,101536.88
2023-05-21T08:12:04.914Z,101539.25
2023-05-21T08:14:32.063Z,101531.28
2023-05-21T08:16:59.767Z,101526.28
2023-05-21T08:19:26.451Z,101537.09
2023-05-21T08:21:53.394Z,101533.00
2023-05-21T08:24:21.899Z,101535.63
2023-05-21T08:26:50.653Z,101525.94
2023-05-21T08:29:18.162Z,101527.50
2023-05-21T08:31:45.219Z,101530.41
2023-05-21T08:34:12.206Z,101529.72
2023-05-21T08:36:49.955Z,101526.44
2023-05-21T08:39:37.040Z,101529.28
2023-05-21T08:42:36.534Z,101523.09
2023-05-21T08:45:06.716Z,101533.03
2023-05-21T08:47:36.032Z,101527.72
2023-05-21T08:50:08.629Z,101535.28
2023-05-21T08:52:35.437Z,101529.47
2023-05-21T08:55:04.525Z,101533.50
2023-05-21T08:57:35.237Z,101522.59
2023-05-21T09:00:04.730Z,101521.94
2023-05-21T09:02:35.395Z,101524.88
2023-05-21T09:05:04.466Z,101524.59
2023-05-21T09:07:34.491Z,101515.19
2023-05-21T09:10:19.932Z,101516.41
2023-05-21T09:12:48.880Z,101512.63
2023-05-21T09:15:15.779Z,101511.84
2023-05-21T09:17:42.624Z,101509.47
2023-05-21T09:20:32.380Z,101519.66
2023-05-21T09:23:08.028Z,101509.75
2023-05-21T09:25:38.139Z,101514.31
2023-05-21T09:28:15.825Z,101522.97
2023-05-21T09:30:47.268Z,101512.44
2023-05-21T09:33:26.202Z,101512.31
2023-05-21T09:35:53.470Z,101517.44
2023-05-21T09:38:22.994Z,101526.78
2023-05-21T09:40:49.751Z,101528.22
2023-05-21T09:43:17.935Z,101525.41
2023-05-21T09:45:58.945Z,101526.81
2023-05-21T09:48:42.041Z,101523.09
2023-05-21T09:51:19.548Z,101523.56
2023-05-21T09:53:54.462Z,101518.50
2023-05-21T09:56:26.530Z,101517.84
2023-05-21T09:58:57.588Z,101510.75
2023-05-21T10:01:25.057Z,101510.13
2023-05-21T10:03:56.939Z,101500.22
2023-05-21T10:06:29.822Z,101509.19
2023-05-21T10:08:59.133Z,101504.56
2023-05-21T10:11:27.416Z,101506.81
2023-05-21T10:14:09.113Z,101501.78
2023-05-21T10:16:37.523Z,101509.22
2023-05-21T10:19:10.857Z,101505.53
2023-05-21T10:21:39.951Z,101504.69
2023-05-21T10:24:08.504Z,101498.47
2023-05-21T10:26:36.321Z,101500.50
2023-05-21T10:29:03.413Z,101497.78
2023-05-21T10:31:30.199Z,101491.25
2023-05-21T10:33:57.267Z,101489.69
2023-05-21T10:36:31.826Z,101490.06
2023-05-21T10:39:00.660Z,101482.25
2023-05-21T10:41:32.127Z,101481.03
2023-05-21T10:44:30.977Z,101487.31
2023-05-21T10:47:24.003Z,101489.34
2023-05-21T10:50:17.894Z,101473.28
2023-05-21T10:53:09.953Z,101475.47
2023-05-21T10:55:43.484Z,101467.53
2023-05-21T10:58:38.118Z,101470.91
2023-05-21T11:01:05.809Z,101472.94
2023-05-21T11:03:36.686Z,101476.63
2023-05-21T11:06:11.465Z,101473.78
2023-05-21T11:08:39.014Z,101465.00
2023-05-21T11:11:06.204Z,101474.53
2023-05-21T11:13:49.078Z,101471.06
2023-05-21T11:16:16.910Z,101468.19
2023-05-21T11:18:46.487Z,101468.72
2023-05-21T11:21:17.955Z,101470.03
2023-05-21T11:23:50.861Z,101466.22
2023-05-21T11:26:22.531Z,101461.97
2023-05-21T11:29:04.657Z,101454.06
2023-05-21T11:31:39.564Z,101451.41
2023-05-21T11:34:13.801Z,101447.78
2023-05-21T11:36:44.461Z,101452.03
2023-05-21T11:39:17.709Z,101460.19
2023-05-21T11:42:04.520Z,101458.56
2023-05-21T11:44:44.642Z,101454.72
2023-05-21T11:47:13.465Z,101457.06
2023-05-21T11:49:40.130Z,101450.66
2023-05-21T11:52:08.871Z,101450.13
2023-05-21T11:54:48.687Z,101445.75
2023-05-21T11:57:17.262Z,101451.84
2023-05-21T11:59:53.583Z,101447.09
2023-05-21T12:02:22.235Z,101442.28
2023-05-21T12:04:52.012Z,101437.88
2023-05-21T12:07:20.299Z,101453.97
2023-05-21T12:09:49.316Z,101434.44
2023-05-21T12:12:21.438Z,101434.88
2023-05-21T12:14:53.193Z,101426.59
2023-05-21T12:17:23.870Z,101432.78
2023-05-21T12:20:01.759Z,101434.41
2023-05-21T12:22:29.820Z,101427.25
2023-05-21T12:24:58.319Z,101429.88
2023-05-21T12:27:25.208Z,101418.13
2023-05-21T12:29:53.110Z,101425.22
2023-05-21T12:32:22.110Z,101422.47
2023-05-21T12:34:54.699Z,101419.22
2023-05-21T12:37:32.577Z,101425.41
2023-05-21T12:40:01.283Z,101442.72
2023-05-21T12:42:35.605Z,101416.34
2023-05-21T12:45:11.899Z,101416.53
2023-05-21T12:47:38.689Z,101425.13
2023-05-21T12:50:09.476Z,101424.09
2023-05-21T12:52:36.211Z,101418.34
2023-05-21T12:55:04.307Z,101416.28
2023-05-21T12:57:40.740Z,101410.22
2023-05-21T13:00:11.327Z,101415.63
2023-05-21T13:02:42.691Z,101420.66
2023-05-21T13:05:17.206Z,101416.44
2023-05-21T13:07:46.912Z,101401.72
2023-05-21T13:10:16.863Z,101413.38
2023-05-21T13:12:44.632Z,101399.72
2023-05-21T13:15:11.753Z,101402.78
2023-05-21T13:17:41.347Z,101396.00
2023-05-21T13:20:12.777Z,101400.09
2023-05-21T13:22:46.587Z,101397.06
2023-05-21T13:25:25.113Z,101398.09
2023-05-21T13:27:53.010Z,101400.31
2023-05-21T13:30:20.904Z,101398.94
2023-05-21T13:32:48.876Z,101397.38
2023-05-21T13:35:16.631Z,101400.09
2023-05-21T13:37:43.604Z,101397.56
2023-05-21T13:40:11.900Z,101395.44
2023-05-21T13:42:39.173Z,101391.91
2023-05-21T13:45:10.462Z,101388.00
2023-05-21T13:47:39.988Z,101388.53
2023-05-21T13:50:08.327Z,101386.72
2023-05-21T13:52:35.293Z,101382.63
2023-05-21T13:55:02.143Z,101385.03
2023-05-21T13:57:30.850Z,101393.84
2023-05-21T13:59:58.397Z,101387.78
2023-05-21T14:02:25.605Z,101380.81
2023-05-21T14:04:52.516Z,101379.75
2023-05-21T14:07:19.230Z,101378.19
2023-05-21T14:09:47.586Z,101367.81
2023-05-21T14:12:14.316Z,101366.41
2023-05-21T14:14:42.007Z,101369.66
2023-05-21T14:17:08.755Z,101374.59
2023-05-21T14:19:35.778Z,101367.19
2023-05-21T14:22:02.521Z,101373.47
2023-05-21T14:24:29.220Z,101365.44
2023-05-21T14:26:55.856Z,101367.84
2023-05-21T14:29:22.481Z,101363.03
2023-05-21T14:31:49.276Z,101360.81
2023-05-21T14:34:16.018Z,101356.53
2023-05-21T14:36:42.693Z,101360.56
2023-05-21T14:39:09.338Z,101354.56
2023-05-21T14:41:39.522Z,101355.13
2023-05-21T14:44:06.197Z,101359.91
2023-05-21T14:46:33.103Z,101361.41
2023-05-21T14:49:00.640Z,101361.94
2023-05-21T14:51:27.465Z,101358.19
2023-05-21T14:53:54.257Z,101355.00
2023-05-21T14:56:21.967Z,101352.78
2023-05-21T14:58:48.932Z,101365.66
2023-05-21T15:01:15.815Z,101360.88
2023-05-21T15:03:42.670Z,101357.97
2023-05-21T15:06:09.518Z,101364.44
2023-05-21T15:08:36.242Z,101361.91
2023-05-21T15:11:02.908Z,101365.16
2023-05-21T15:13:29.598Z,101363.75
2023-05-21T15:15:56.379Z,101366.16
2023-05-21T15:18:24.712Z,101364.97
2023-05-21T15:20:51.677Z,101352.94
2023-05-21T15:23:18.726Z,101368.53
2023-05-21T15:25:45.953Z,101354.50
2023-05-21T15:28:12.916Z,101357.31
2023-05-21T15:30:40.292Z,101361.25
2023-05-21T15:33:07.004Z,101358.03
2023-05-21T15:35:35.543Z,101360.91
2023-05-21T15:38:02.778Z,101354.00
2023-05-21T15:40:29.588Z,101357.22
2023-05-21T15:42:56.278Z,101356.09
2023-05-21T15:45:22.914Z,101355.41
2023-05-21T15:47:49.601Z,101350.84
2023-05-21T15:50:16.462Z,101340.03
2023-05-21T15:52:43.222Z,101341.69
2023-05-21T15:55:10.188Z,101333.75
2023-05-21T15:57:36.996Z,101333.09
2023-05-21T16:00:05.441Z,101323.25
2023-05-21T16:02:35.601Z,101321.22
2023-05-21T16:05:02.426Z,101323.59
2023-05-21T16:07:29.108Z,101323.78
2023-05-21T16:09:55.788Z,101318.22
2023-05-21T16:12:22.618Z,101327.38
2023-05-21T16:14:52.073Z,101317.38
2023-05-21T16:17:21.717Z,101311.28
2023-05-21T16:19:48.439Z,101312.50
2023-05-21T16:22:15.234Z,101323.63
2023-05-21T16:24:41.896Z,101317.28
2023-05-21T16:27:08.579Z,101317.97
2023-05-21T16:29:35.319Z,101318.31
2023-05-21T16:32:02.152Z,101321.59
2023-05-21T16:34:28.868Z,101322.59
2023-05-21T16:36:55.554Z,101319.59
2023-05-21T16:39:22.338Z,101320.44
2023-05-21T16:41:49.102Z,101317.25
2023-05-21T16:44:15.755Z,101314.41
2023-05-21T16:46:42.725Z,101311.69
2023-05-21T16:49:09.541Z,101320.00
2023-05-21T16:51:36.328Z,101316.81
2023-05-21T16:54:04.818Z,101305.81
2023-05-21T16:56:31.644Z,101308.31
2023-05-21T16:58:58.526Z,101304.47
2023-05-21T17:01:25.194Z,101294.34
2023-05-21T17:03:54.359Z,101294.88
2023-05-21T17:06:21.246Z,101299.47
2023-05-21T17:08:47.928Z,101294.34
2023-05-21T17:11:14.709Z,101298.28
2023-05-21T17:13:41.874Z,101289.84
2023-05-21T17:16:08.580Z,101294.72
2023-05-21T17:18:35.372Z,101297.44
2023-05-21T17:21:02.100Z,101301.13
2023-05-21T17:23:28.764Z,101297.94
2023-05-21T17:25:55.538Z,101296.59
2023-05-21T17:28:22.264Z,101294.97
2023-05-21T17:30:49.786Z,101302.41
2023-05-21T17:33:16.894Z,101307.16
2023-05-21T17:35:43.998Z,101314.28
2023-05-21T17:38:10.818Z,101317.50
2023-05-21T17:40:37.577Z,101321.38
2023-05-21T17:43:05.186Z,101309.25
2023-05-21T17:45:32.094Z,101314.00
2023-05-21T17:48:00.424Z,101313.66
2023-05-21T17:50:27.844Z,101305.41
2023-05-21T17:52:54.580Z,101306.75
2023-05-21T17:55:21.268Z,101308.25
2023-05-21T17:57:47.970Z,101313.66
2023-05-21T18:00:14.897Z,101314.34
2023-05-21T18:02:41.571Z,101316.72
2023-05-21T18:05:08.560Z,101312.88
2023-05-21T18:07:35.290Z,101318.09
2023-05-21T18:10:01.928Z,101322.63
2023-05-21T18:12:28.661Z,101323.00
2023-05-21T18:14:55.356Z,101316.44
2023-05-21T18:17:22.057Z,101328.09
2023-05-21T18:19:48.878Z,101329.59
2023-05-21T18:22:15.595Z,101326.69
2023-05-21T18:24:42.710Z,101325.88
2023-05-21T18:27:09.481Z,101313.91
2023-05-21T18:29:36.760Z,101324.72
2023-05-21T18:32:04.145Z,101315.56
2023-05-21T18:34:31.011Z,101316.03
2023-05-21T18:36:58.778Z,101319.78
2023-05-21T18:39:27.051Z,101319.28
2023-05-21T18:42:11.588Z,101323.16
2023-05-21T18:44:39.938Z,101323.16
2023-05-21T18:47:07.751Z,101320.13
2023-05-21T18:49:36.095Z,101318.09
2023-05-21T18:52:04.043Z,101324.69
2023-05-21T18:54:31.143Z,101322.50
2023-05-21T18:57:00.236Z,101313.88
2023-05-21T18:59:28.674Z,101313.22
2023-05-21T19:01:55.492Z,101317.28
2023-05-21T19:04:23.848Z,101320.13
2023-05-21T19:06:52.564Z,101324.22
2023-05-21T19:09:19.236Z,101315.25
2023-05-21T19:11:46.026Z,101317.78
2023-05-21T19:14:12.795Z,101327.72
2023-05-21T19:16:39.559Z,101316.09
2023-05-21T19:19:06.350Z,101323.84
2023-05-21T19:21:33.568Z,101321.81
2023-05-21T19:24:05.895Z,101312.91
2023-05-21T19:26:32.928Z,101318.28
2023-05-21T19:28:59.673Z,101319.97
2023-05-21T19:31:26.468Z,101318.63
2023-05-21T19:33:53.386Z,101322.47
2023-05-21T19:36:21.219Z,101317.75
2023-05-21T19:38:49.136Z,101317.78
2023-05-21T19:41:16.960Z,101327.91
2023-05-21T19:43:44.424Z,101328.06
2023-05-21T19:46:11.348Z,101335.13
2023-05-21T19:48:38.210Z,101334.47
2023-05-21T19:51:05.130Z,101339.69
2023-05-21T19:53:31.857Z,101339.69
2023-05-21T19:55:58.616Z,101346.78
2023-05-21T19:58:26.990Z,101347.94
2023-05-21T20:00:58.575Z,101344.72
2023-05-21T20:03:26.868Z,101350.44
2023-05-21T20:05:54.240Z,101343.06
2023-05-21T20:08:21.358Z,101353.63
2023-05-21T20:10:50.503Z,101353.41
2023-05-21T20:13:18.646Z,101357.13
2023-05-21T20:15:45.607Z,101361.94
2023-05-21T20:18:12.932Z,101358.25
2023-05-21T20:20:41.283Z,101363.44
2023-05-21T20:23:08.881Z,101360.06
2023-05-21T20:25:35.828Z,101360.25
2023-05-21T20:28:03.329Z,101364.63
2023-05-21T20:30:34.916Z,101369.91
2023-05-21T20:33:02.943Z,101372.06
2023-05-21T20:35:30.197Z,101369.34
2023-05-21T20:37:57.016Z,101366.50
2023-05-21T20:40:23.698Z,101362.84
2023-05-21T20:42:53.443Z,101359.94
2023-05-21T20:45:21.066Z,101365.25
2023-05-21T20:47:48.272Z,101366.38
2023-05-21T20:50:17.516Z,101367.63
2023-05-21T20:52:47.004Z,101365.94
2023-05-21T20:55:14.909Z,101368.16
2023-05-21T20:57:42.152Z,101372.31
2023-05-21T21:00:11.871Z,101369.31
2023-05-21T21:02:39.130Z,101376.06
2023-05-21T21:05:06.686Z,101376.47
2023-05-21T21:07:34.154Z,101371.03
2023-05-21T21:10:01.405Z,101364.91
2023-05-21T21:12:28.196Z,101365.06
2023-05-21T21:14:55.012Z,101374.09
2023-05-21T21:17:23.455Z,101362.81
2023-05-21T21:19:50.317Z,101359.00
2023-05-21T21:22:18.188Z,101369.09
2023-05-21T21:24:45.620Z,101370.88
2023-05-21T21:27:12.419Z,101370.25
2023-05-21T21:29:39.183Z,101372.09
2023-05-21T21:32:06.463Z,101370.69
2023-05-21T21:34:33.141Z,101374.97
2023-05-21T21:36:59.848Z,101373.03
2023-05-21T21:39:28.989Z,101372.97
2023-05-21T21:41:55.834Z,101369.22
2023-05-21T21:44:22.569Z,101371.59
2023-05-21T21:46:49.446Z,101373.44
2023-05-21T21:49:18.569Z,101373.91
2023-05-21T21:51:45.616Z,101373.91
2023-05-21T21:54:12.371Z,101366.84
2023-05-21T21:56:39.182Z,101368.19
2023-05-21T21:59:06.015Z,101371.13
2023-05-21T22:01:33.163Z,101371.13
2023-05-21T22:03:59.933Z,101366.44
2023-05-21T22:06:27.699Z,101373.38
2023-05-21T22:08:55.027Z,101368.44
2023-05-21T22:11:21.967Z,101366.25
2023-05-21T22:13:48.867Z,101366.00
2023-05-21T22:16:15.658Z,101366.00
2023-05-21T22:18:42.457Z,101369.31
2023-05-21T22:21:10.596Z,101361.75
2023-05-21T22:23:38.514Z,101368.63
2023-05-21T22:26:05.862Z,101363.53
2023-05-21T22:28:32.822Z,101362.44
2023-05-21T22:30:59.610Z,101368.97
2023-05-21T22:33:26.837Z,101368.97
2023-05-21T22:35:54.467Z,101364.03
2023-05-21T22:38:21.511Z,101358.44
2023-05-21T22:40:48.425Z,101366.34
2023-05-21T22:43:15.086Z,101364.88
2023-05-21T22:45:42.192Z,101359.25
2023-05-21T22:48:09.433Z,101351.66
2023-05-21T22:50:38.238Z,101357.41
2023-05-21T22:53:05.753Z,101357.19
2023-05-21T22:55:32.453Z,101354.63
2023-05-21T22:57:59.198Z,101354.06
2023-05-21T23:00:26.398Z,101350.25
2023-05-21T23:02:54.482Z,101355.69
2023-05-21T23:05:21.754Z,101352.16
2023-05-21T23:07:48.488Z,101351.34
2023-05-21T23:10:15.335Z,101353.06
2023-05-21T23:12:42.111Z,101350.25
2023-05-21T23:15:09.998Z,101348.00
2023-05-21T23:17:38.041Z,101345.53
2023-05-21T23:20:08.907Z,101349.88
2023-05-21T23:22:35.834Z,101350.03
2023-05-21T23:25:02.752Z,101349.28
2023-05-21T23:27:29.593Z,101343.81
2023-05-21T23:29:56.420Z,101350.25
2023-05-21T23:32:23.642Z,101346.03
2023-05-21T23:34:50.712Z,101347.78
2023-05-21T23:37:17.655Z,101347.66
2023-05-21T23:39:48.168Z,101345.38
2023-05-21T23:42:16.286Z,101335.75
2023-05-21T23:44:43.070Z,101341.00
2023-05-21T23:47:09.994Z,101337.63
2023-05-21T23:49:36.739Z,101339.41
2023-05-21T23:52:03.659Z,101338.16
2023-05-21T23:54:30.740Z,101336.44
2023-05-21T23:56:57.564Z,101338.69
2023-05-21T23:59:24.299Z,101333.59
